Latest METARs, TAFs and NOTAMs for RJGG


---------------------------------------------------------------------------
	(OBSERVATIONS)
RJGG 170230Z 31010KT 9999 FEW020 BKN/// 08/01 Q1016 NOSIG=
RJGG 170200Z 30011KT 9999 FEW020 BKN/// 08/01 Q1017 NOSIG=
RJGG 170130Z 31005KT 280V350 9999 FEW020 SCT040 BKN/// 07/01
    Q1017 NOSIG=
RJGG 170100Z 32007KT 9999 FEW030 SCT180 BKN/// 07/00 Q1016 NOSIG=
RJGG 170030Z 32010KT 9999 FEW030 BKN/// 07/01 Q1016 NOSIG=
RJGG 170000Z 30010KT 9999 FEW030 BKN/// 06/01 Q1016 NOSIG=
---------------------------------------------------------------------------
	(TERMINAL AREA FORECAST)
RJGG 162305Z 1700/1806 30014KT 9999 FEW030
    BECMG 1708/1710 30025KT
    BECMG 1803/1806 28014KT=
---------------------------------------------------------------------------
	(NOTAMS)


RJGG G2261/20 FLW FREQ-U/S DUE TO MAINT CENTRAIR APP 119.175MHZ,245.3MHZ
    CENTRAIR TCA 121.175MHZ,318.0MHZ. 01 FEB 13:00 2021 UNTIL
    01 FEB 17:00 2021. CREATED: 18 NOV 06:54 2020

RJGG G2262/20 FLW FREQ-U/S DUE TO MAINT CENTRAIR APP 119.175MHZ,245.3MHZ
    CENTRAIR TCA 121.175MHZ,318.0MHZ. 15 FEB 13:00 2021 UNTIL
    15 FEB 17:00 2021. CREATED: 18 NOV 06:55 2020

RJGG V0529/20 [US DOD PROCEDURAL NOTAM] INSTRUMENT APPROACH PROCEDURE
    NOT AUTHORIZED ILS Y OR LOC Y RWY 18; ILS Y RWY 18 CAT II;
    ILS Y OR LOC Y RWY 36; ILS Y RWY 36 CAT II; VOR RWY 18; VOR
    RWY 36; DO NOT USE. 04 NOV 13:59 2020 UNTIL 24 FEB 13:59
    2021. CREATED: 03 NOV 13:10 2020

RJGG V0530/20 [US DOD PROCEDURAL NOTAM] STANDARD INSTRUMENT DEPARTURE
    (SID) NOT AUTHORIZED SID RWY 18/36 HIKNE 1; SID RWY 18/36
    MORIZ 1; SID RWY 18/36 NAGOYA 5; DO NOT USE. 04 NOV 13:59
    2020 UNTIL 24 FEB 13:59 2021. CREATED: 03 NOV 13:12 2020

---------------------------------------------------------------------------